Terminal Aerodrome Forecast
Issued by NWS

Home | Current Version | Previous Version | Text Only | Print | Product List | Glossary On
Versions: 1 2 3 4 5 6 7 8 9 10 11 12 13 14 15 16 17 18 19 20 21 22 23 24 25 26 27 28
000
FTUS46 KMTR 271135
TAFSFO
TAF
KSFO 271135Z 2712/2818 22005KT P6SM OVC018
     FM271600 25007KT P6SM BKN020
     FM271900 27013KT P6SM SCT025
     FM272100 28015KT P6SM FEW015
     FM280400 27010KT P6SM SCT020
     FM280800 25005KT P6SM OVC015=

USA.gov is the U.S. government's official web portal to all federal, state and local government web resources and services.